Time;durP1;ratioP1;P1;durP2;ratioP2;P2;SDS_P1;SDS_P2;PMS_P1;PMS_P2;Temp;Humidity;BMP_temperature;BMP_pressure;BME280_temperature;BME280_humidity;BME280_pressure;Samples;Min_cycle;Max_cycle;Signal;HPM_P1;HPM_P2
2022/02/04 00:20:55;;;;;;;7.30;6.80;;;;;;;5.92;89.23;99608.56;10500810;28;20051;-70
2022/02/04 00:26:10;;;;;;;8.15;7.55;;;;;;;5.92;89.14;99605.97;10500350;28;20433;-70
2022/02/04 00:31:31;;;;;;;8.10;7.53;;;;;;;6.01;88.31;99611.00;10501498;28;20068;-70
2022/02/04 00:36:41;;;;;;;8.82;8.23;;;;;;;5.92;89.36;99603.34;10500519;28;20090;-70
2022/02/04 00:41:44;;;;;;;8.27;7.68;;;;;;;5.89;90.27;99609.47;10499738;28;20512;-70
2022/02/04 00:52:02;;;;;;;10.18;9.48;;;;;;;5.88;90.66;99610.34;10498956;28;20102;-70
2022/02/04 00:57:15;;;;;;;12.27;11.38;;;;;;;5.89;91.26;99604.25;10499230;28;20048;-70
2022/02/04 01:28:58;;;;;;;17.27;16.08;;;;;;;6.20;96.12;99591.47;10498023;28;20414;-69
2022/02/04 01:33:59;;;;;;;18.63;17.25;;;;;;;6.14;96.78;99586.38;10498702;28;20036;-69
2022/02/04 01:39:02;;;;;;;19.65;18.25;;;;;;;5.78;99.43;99595.75;10480774;28;20425;-69
2022/02/04 01:44:27;;;;;;;20.50;19.00;;;;;;;5.91;99.51;99593.78;10479408;28;20044;-68
2022/02/04 01:49:30;;;;;;;16.90;15.70;;;;;;;5.98;98.98;99587.59;10497305;28;20044;-68
2022/02/04 01:54:31;;;;;;;18.55;17.15;;;;;;;5.85;99.55;99596.53;10500691;28;20040;-68
2022/02/04 01:59:33;;;;;;;20.17;18.58;;;;;;;5.94;99.76;99604.19;10506715;28;20192;-68
2022/02/04 02:04:35;;;;;;;20.27;18.67;;;;;;;5.90;99.46;99611.19;10505185;28;20040;-68
2022/02/04 02:09:53;;;;;;;18.73;17.38;;;;;;;6.05;98.40;99613.50;10505358;28;20391;-68
2022/02/04 02:57:43;;;;;;;11.23;10.32;;;;;;;5.65;97.19;99628.19;10504054;28;20048;-68
2022/02/04 03:02:43;;;;;;;12.88;11.88;;;;;;;5.59;96.75;99621.34;10503597;28;20064;-69
2022/02/04 03:07:45;;;;;;;10.60;9.82;;;;;;;5.72;95.42;99620.22;10543856;22;20059;-76
2022/02/04 03:12:46;;;;;;;10.88;10.07;;;;;;;5.64;95.89;99613.44;10592583;28;20044;-75
2022/02/04 03:17:58;;;;;;;10.70;9.38;;;;;;;5.55;95.15;99604.88;10593954;28;20446;-75
2022/02/04 03:22:59;;;;;;;10.65;9.75;;;;;;;5.46;95.56;99606.81;10589922;28;20089;-75
2022/02/04 03:28:01;;;;;;;11.60;10.45;;;;;;;5.41;95.63;99614.69;10555678;28;20405;-75
2022/02/04 03:33:05;;;;;;;11.90;11.00;;;;;;;5.49;95.39;99624.97;10589919;28;20108;-75
2022/02/04 03:38:07;;;;;;;12.48;11.55;;;;;;;5.40;95.32;99626.03;10592227;28;20055;-75
2022/02/04 03:43:09;;;;;;;11.85;10.95;;;;;;;5.41;96.09;99627.75;10589391;28;20040;-75
2022/02/04 03:48:10;;;;;;;11.15;10.35;;;;;;;5.62;94.08;99639.50;10588348;28;20100;-76
2022/02/04 03:53:16;;;;;;;11.95;11.07;;;;;;;5.57;93.54;99636.13;10571189;28;20069;-75
2022/02/04 03:58:17;;;;;;;11.18;10.32;;;;;;;5.30;94.59;99640.94;10588073;28;20043;-74
2022/02/04 04:03:19;;;;;;;10.68;9.88;;;;;;;5.24;94.69;99640.19;10573980;28;20046;-75
2022/02/04 04:08:21;;;;;;;10.90;10.10;;;;;;;5.36;94.17;99631.28;10591367;28;20044;-75
2022/02/04 04:13:23;;;;;;;11.65;10.75;;;;;;;5.31;93.79;99627.03;10556726;28;20054;-74
2022/02/04 04:18:24;;;;;;;11.00;10.15;;;;;;;5.19;94.16;99624.63;10569537;28;20496;-75
2022/02/04 04:23:26;;;;;;;9.93;9.23;;;;;;;5.28;93.30;99628.81;10592345;28;20046;-75
2022/02/04 04:28:27;;;;;;;11.30;10.30;;;;;;;5.16;93.86;99634.22;10569993;28;20051;-75
2022/02/04 04:33:29;;;;;;;9.65;8.85;;;;;;;5.14;93.70;99636.88;10588898;28;20044;-75
2022/02/04 04:38:37;;;;;;;9.93;9.13;;;;;;;5.18;93.27;99635.06;10588307;28;20043;-75
2022/02/04 05:26:40;;;;;;;9.05;8.35;;;;;;;5.25;89.80;99640.16;10593176;28;20043;-75
2022/02/04 05:31:42;;;;;;;8.25;7.63;;;;;;;5.36;89.39;99633.88;10586881;28;20088;-75
2022/02/04 05:36:47;;;;;;;7.72;7.13;;;;;;;5.34;88.65;99636.53;10569707;28;20051;-76
2022/02/04 05:41:50;;;;;;;7.55;6.95;;;;;;;5.26;88.52;99634.03;10569338;28;20077;-74
2022/02/04 05:46:58;;;;;;;6.50;5.93;;;;;;;5.09;89.48;99624.78;10571446;28;20044;-75
2022/02/04 05:52:11;;;;;;;5.05;4.65;;;;;;;5.18;87.82;99633.34;10589548;28;20044;-75
2022/02/04 05:57:28;;;;;;;5.03;4.63;;;;;;;5.17;88.14;99642.00;10570400;28;20036;-74
2022/02/04 06:23:14;;;;;;;3.55;3.25;;;;;;;5.16;86.29;99655.94;10589320;28;20054;-76
2022/02/04 06:28:16;;;;;;;3.90;3.60;;;;;;;5.10;86.39;99666.47;10588760;28;20051;-76
2022/02/04 06:33:17;;;;;;;3.63;3.33;;;;;;;5.12;85.85;99675.09;10591897;28;20044;-75
2022/02/04 06:38:19;;;;;;;3.58;3.30;;;;;;;5.20;85.19;99672.38;10589967;28;20519;-76
2022/02/04 06:43:20;;;;;;;3.72;3.40;;;;;;;5.19;85.30;99673.28;10594793;28;20508;-75
2022/02/04 06:48:22;;;;;;;3.38;3.08;;;;;;;5.36;83.90;99678.19;10596021;28;20096;-76
2022/02/04 06:53:24;;;;;;;3.22;2.92;;;;;;;5.14;84.89;99675.09;10562408;28;20044;-76
2022/02/04 06:58:26;;;;;;;3.05;2.83;;;;;;;5.32;84.06;99674.81;10594806;28;20484;-76
2022/02/04 07:03:27;;;;;;;3.22;2.92;;;;;;;5.07;84.76;99674.31;10593990;28;20446;-76
2022/02/04 07:14:09;;;;;;;3.17;2.95;;;;;;;5.24;82.58;99679.28;10596272;28;20497;-76
2022/02/04 07:24:30;;;;;;;3.10;2.75;;;;;;;5.40;81.11;99680.75;10595793;28;20434;-76
2022/02/04 07:29:33;;;;;;;3.13;2.83;;;;;;;5.48;80.25;99673.66;10578011;28;20056;-76
2022/02/04 07:44:56;;;;;;;3.10;2.90;;;;;;;5.49;80.32;99684.94;10582428;28;20103;-78
2022/02/04 07:49:58;;;;;;;4.35;3.05;;;;;;;5.59;80.37;99693.47;10582602;28;20055;-78
2022/02/04 07:55:01;;;;;;;3.25;2.95;;;;;;;5.61;80.24;99692.56;10565120;28;20059;-77
2022/02/04 08:00:04;;;;;;;2.92;2.72;;;;;;;5.60;79.84;99684.78;10602938;28;20546;-77
2022/02/04 08:05:19;;;;;;;3.47;3.17;;;;;;;5.69;79.51;99682.84;10580712;28;20062;-77
2022/02/04 08:15:51;;;;;;;3.55;3.25;;;;;;;5.71;78.84;99701.06;10598356;28;20099;-77
2022/02/04 08:26:22;;;;;;;3.43;3.13;;;;;;;5.74;79.35;99698.41;10606685;28;20084;-78
2022/02/04 08:48:00;;;;;;;3.35;3.08;;;;;;;5.92;77.89;99699.88;10600686;28;20043;-78
2022/02/04 08:53:07;;;;;;;3.60;3.25;;;;;;;5.97;78.59;99713.69;10603559;28;20035;-77
2022/02/04 09:03:36;;;;;;;3.10;2.80;;;;;;;6.28;75.96;99716.59;10581106;28;20050;-78
2022/02/04 09:08:51;;;;;;;3.10;2.80;;;;;;;6.39;76.16;99712.03;10602993;22;20043;-71
2022/02/04 09:19:18;;;;;;;3.10;2.80;;;;;;;6.47;75.28;99704.06;10582731;28;20039;-71
2022/02/04 09:24:20;;;;;;;2.30;2.13;;;;;;;6.36;76.44;99701.63;10583907;28;20047;-71
2022/02/04 09:29:22;;;;;;;2.72;2.53;;;;;;;6.57;74.78;99679.47;10583696;28;20054;-71
2022/02/04 09:34:23;;;;;;;3.45;3.15;;;;;;;6.64;75.35;99682.78;10548915;28;20043;-71
2022/02/04 09:39:25;;;;;;;2.65;2.42;;;;;;;6.87;73.41;99672.72;10581856;28;20167;-71
2022/02/04 09:44:27;;;;;;;2.55;2.35;;;;;;;6.59;75.08;99669.81;10582667;28;20117;-71
2022/02/04 09:49:33;;;;;;;2.20;2.03;;;;;;;6.70;74.21;99670.47;10583257;28;20096;-71
2022/02/04 10:21:41;;;;;;;2.88;1.92;;;;;;;7.03;70.59;99663.59;10550025;28;20044;-71
2022/02/04 10:26:42;;;;;;;2.03;1.83;;;;;;;7.01;70.31;99659.31;10550577;28;20078;-71
2022/02/04 10:31:52;;;;;;;2.58;1.85;;;;;;;7.01;70.24;99654.97;10547465;28;20036;-71
2022/02/04 10:37:22;;;;;;;1.88;1.40;;;;;;;6.91;69.74;99653.47;10550625;28;20489;-72
2022/02/04 10:42:47;;;;;;;1.60;1.50;;;;;;;6.99;69.28;99641.06;10531038;28;20043;-72
2022/02/04 11:03:27;;;;;;;1.10;1.00;;;;;;;7.13;68.18;99614.63;10570987;28;20488;-72
2022/02/04 11:08:52;;;;;;;1.70;1.00;;;;;;;7.50;67.17;99606.69;10546101;28;20044;-71
2022/02/04 11:51:48;;;;;;;0.68;0.63;;;;;;;7.86;63.12;99550.78;10544457;28;20040;-72
2022/02/04 11:56:56;;;;;;;0.70;0.60;;;;;;;7.98;62.56;99561.78;10545385;28;20044;-72
2022/02/04 12:01:57;;;;;;;1.35;1.00;;;;;;;7.95;62.06;99555.75;10564296;28;20040;-72
2022/02/04 12:06:59;;;;;;;0.70;0.70;;;;;;;8.01;61.76;99556.47;10553343;28;20043;-72
2022/02/04 12:12:01;;;;;;;1.00;0.90;;;;;;;7.79;62.88;99543.13;10586818;28;20466;-72
2022/02/04 12:17:08;;;;;;;1.00;0.85;;;;;;;7.84;63.43;99543.00;10561948;28;20036;-72
2022/02/04 12:22:11;;;;;;;0.88;0.60;;;;;;;7.82;61.16;99540.41;10529002;28;20040;-72
2022/02/04 12:27:31;;;;;;;1.63;0.80;;;;;;;7.61;62.10;99521.84;10611670;27;20039;-73
2022/02/04 12:32:37;;;;;;;1.95;0.70;;;;;;;7.67;61.96;99525.16;10628017;27;20511;-71
2022/02/04 12:37:45;;;;;;;0.40;0.40;;;;;;;7.60;62.41;99520.97;10627454;27;20039;-72
2022/02/04 12:42:50;;;;;;;0.63;0.50;;;;;;;7.66;62.36;99515.59;10626531;27;20054;-72
2022/02/04 12:47:53;;;;;;;1.10;0.70;;;;;;;7.68;62.47;99498.09;10607803;27;20035;-73
2022/02/04 12:52:54;;;;;;;0.70;0.70;;;;;;;7.62;63.67;99490.44;10627169;27;20050;-73
2022/02/04 12:58:35;;;;;;;3.75;3.45;;;;;;;7.77;62.29;99481.25;10626677;27;20096;-72
2022/02/04 13:07:27;;;;;;;1.35;0.80;;;;;;;7.66;62.71;99480.72;10625144;27;20500;-72
2022/02/04 13:14:27;;;;;;;1.38;0.90;;;;;;;7.97;62.45;99471.09;10607982;27;20449;-72
2022/02/04 13:19:30;;;;;;;5.20;4.15;;;;;;;8.04;62.45;99456.88;10625615;27;20047;-71
2022/02/04 13:24:32;;;;;;;1.55;0.60;;;;;;;8.01;61.23;99459.63;10624946;27;20088;-71
2022/02/04 13:29:34;;;;;;;3.58;3.08;;;;;;;8.04;61.98;99454.25;10627734;27;20043;-72
2022/02/04 13:34:36;;;;;;;3.38;2.65;;;;;;;7.98;60.80;99441.38;10588603;27;20038;-71
2022/02/04 13:39:53;;;;;;;1.83;1.33;;;;;;;7.96;61.22;99442.31;10573362;28;20105;-72
2022/02/04 13:45:02;;;;;;;0.40;0.40;;;;;;;8.07;60.26;99433.25;10545381;28;20044;-71
2022/02/04 13:55:42;;;;;;;0.70;0.65;;;;;;;8.17;59.73;99427.72;10582525;28;20039;-70
2022/02/04 14:00:58;;;;;;;0.80;0.40;;;;;;;7.96;60.54;99432.69;10563273;28;20044;-68
2022/02/04 14:11:09;;;;;;;0.60;0.60;;;;;;;7.59;61.78;99435.56;10563753;28;20052;-70
2022/02/04 14:16:31;;;;;;;0.50;0.50;;;;;;;7.60;61.66;99426.81;10561211;28;20040;-71
2022/02/04 14:21:34;;;;;;;0.47;0.35;;;;;;;7.53;62.50;99413.09;10521977;28;20478;-70
2022/02/04 14:26:40;;;;;;;0.73;0.60;;;;;;;7.46;63.21;99389.75;10552772;28;20043;-71
2022/02/04 14:31:55;;;;;;;0.82;0.35;;;;;;;7.53;62.32;99379.09;10584018;28;20142;-71
2022/02/04 14:37:20;;;;;;;0.63;0.60;;;;;;;7.44;62.79;99365.44;10582978;28;20040;-70
2022/02/04 15:03:32;;;;;;;0.82;0.50;;;;;;;7.34;61.60;99343.91;10556536;28;20044;-71
2022/02/04 15:08:44;;;;;;;1.00;0.60;;;;;;;7.15;62.75;99333.13;10584220;28;20051;-71
2022/02/04 15:13:53;;;;;;;1.05;0.40;;;;;;;7.21;62.66;99329.47;10549701;28;20505;-70
2022/02/04 15:18:55;;;;;;;0.77;0.60;;;;;;;7.25;62.46;99312.81;10571265;28;20048;-70
2022/02/04 15:23:59;;;;;;;0.80;0.63;;;;;;;7.26;63.23;99314.50;10590310;28;20546;-70
2022/02/04 15:29:07;;;;;;;1.10;1.00;;;;;;;7.19;64.55;99319.09;10489963;22;20060;-78
2022/02/04 15:34:11;;;;;;;1.40;0.70;;;;;;;7.02;66.28;99316.94;10416615;28;20486;-79
2022/02/04 15:39:19;;;;;;;2.20;1.00;;;;;;;6.99;66.61;99319.63;10432541;28;20812;-77
2022/02/04 15:54:52;;;;;;;2.55;1.23;;;;;;;6.95;65.91;99299.75;10427585;28;20383;-76
2022/02/04 16:00:14;;;;;;;;;;;;;;;6.87;66.98;99295.66;10424633;28;20438;-76
2022/02/04 16:05:16;;;;;;;1.48;1.15;;;;;;;7.02;65.60;99301.28;10408495;28;19988;-76
2022/02/04 16:10:32;;;;;;;1.50;1.38;;;;;;;6.88;65.78;99300.81;10405001;28;20049;-76
2022/02/04 16:15:45;;;;;;;0.90;0.70;;;;;;;7.10;64.66;99295.84;10403614;28;20037;-76
2022/02/04 16:21:02;;;;;;;1.42;0.70;;;;;;;7.16;63.67;99292.16;10422821;28;20514;-75
2022/02/04 16:26:46;;;;;;;;;;;;;;;7.03;64.31;99292.53;10404396;28;20045;-75
2022/02/04 16:31:49;;;;;;;0.50;0.50;;;;;;;7.18;63.33;99286.00;10438879;28;19920;-76
2022/02/04 16:36:56;;;;;;;0.82;0.50;;;;;;;7.21;62.78;99271.97;10462892;28;20037;-75
2022/02/04 16:42:10;;;;;;;0.57;0.52;;;;;;;7.30;62.86;99269.97;10463460;28;20052;-77
2022/02/04 16:47:12;;;;;;;1.25;0.70;;;;;;;7.15;63.82;99267.78;10445797;28;20064;-75
2022/02/04 16:52:17;;;;;;;0.80;0.60;;;;;;;7.17;63.74;99272.97;10465764;28;20049;-76
2022/02/04 16:57:19;;;;;;;1.88;0.90;;;;;;;7.05;64.48;99259.38;10464808;28;20448;-76
2022/02/04 17:02:21;;;;;;;0.68;0.63;;;;;;;7.05;64.61;99254.16;10462322;28;20041;-75
2022/02/04 17:07:26;;;;;;;0.88;0.70;;;;;;;7.03;63.79;99266.41;10445023;28;20037;-76
2022/02/04 17:12:30;;;;;;;1.23;0.80;;;;;;;7.08;63.52;99253.19;10446575;28;20111;-76
2022/02/04 17:17:32;;;;;;;0.55;0.50;;;;;;;7.12;62.77;99259.19;10445074;28;20067;-76
2022/02/04 17:22:36;;;;;;;0.85;0.60;;;;;;;7.05;63.39;99267.22;10462632;28;20120;-76
2022/02/04 17:27:40;;;;;;;0.95;0.75;;;;;;;7.01;62.75;99272.59;10445537;28;20052;-76
2022/02/04 17:32:44;;;;;;;0.50;0.40;;;;;;;7.06;62.65;99268.06;10464757;28;20075;-76
2022/02/04 17:37:46;;;;;;;1.17;0.60;;;;;;;7.06;62.63;99268.94;10445293;28;20055;-76
2022/02/04 17:42:48;;;;;;;0.57;0.40;;;;;;;7.03;62.77;99265.53;10464159;28;20063;-75
2022/02/04 17:48:02;;;;;;;0.40;0.40;;;;;;;7.10;63.22;99253.16;10427131;28;20498;-77
2022/02/04 17:53:11;;;;;;;0.40;0.40;;;;;;;6.89;64.31;99247.66;10462904;28;20041;-75
2022/02/04 17:58:27;;;;;;;1.45;0.40;;;;;;;6.89;64.19;99239.81;10448174;28;20041;-76
2022/02/04 18:08:48;;;;;;;0.70;0.70;;;;;;;6.87;64.52;99225.97;10463208;28;20045;-77
2022/02/04 18:13:50;;;;;;;0.60;0.60;;;;;;;6.91;64.09;99224.97;10462930;28;20049;-75
2022/02/04 18:18:51;;;;;;;0.90;0.60;;;;;;;6.85;65.33;99214.69;10463546;28;20076;-76
2022/02/04 18:23:53;;;;;;;0.65;0.50;;;;;;;6.73;65.16;99207.22;10460371;28;20045;-76
2022/02/04 18:28:55;;;;;;;3.25;3.00;;;;;;;6.90;64.85;99222.38;10460214;28;20133;-76
2022/02/04 18:33:56;;;;;;;0.93;0.75;;;;;;;6.77;65.58;99221.88;10442296;28;20041;-76
2022/02/04 18:39:22;;;;;;;3.80;0.40;;;;;;;6.64;66.42;99212.69;10454319;28;20063;-76
2022/02/04 18:44:28;;;;;;;0.40;0.40;;;;;;;6.62;66.44;99198.84;10464895;28;20126;-77
2022/02/04 18:49:38;;;;;;;0.30;0.30;;;;;;;6.56;66.85;99213.78;10469997;28;20044;-76
2022/02/04 18:54:45;;;;;;;0.30;0.30;;;;;;;6.59;66.87;99212.84;10468145;28;20048;-76
2022/02/04 18:59:56;;;;;;;0.40;0.40;;;;;;;6.56;66.96;99205.97;10435594;28;20087;-76
2022/02/04 19:05:04;;;;;;;0.68;0.40;;;;;;;6.51;66.19;99197.41;10448735;28;20532;-76
2022/02/04 19:10:06;;;;;;;0.40;0.40;;;;;;;6.68;65.88;99211.72;10468696;28;20045;-75
2022/02/04 19:20:39;;;;;;;0.90;0.50;;;;;;;6.58;66.21;99195.47;10468735;28;20051;-76
2022/02/04 19:25:41;;;;;;;0.45;0.43;;;;;;;6.58;65.96;99170.19;10468676;28;20052;-76
2022/02/04 19:30:47;;;;;;;0.60;0.52;;;;;;;6.71;65.85;99159.41;10465749;28;20045;-75
2022/02/04 19:35:50;;;;;;;0.50;0.50;;;;;;;6.60;65.68;99151.91;10466595;28;20513;-76
2022/02/04 19:40:52;;;;;;;0.60;0.50;;;;;;;6.64;65.25;99148.31;10431296;28;20158;-73
2022/02/04 19:45:58;;;;;;;0.75;0.70;;;;;;;6.65;65.91;99133.47;10421495;28;20053;-74
2022/02/04 19:51:16;;;;;;;1.48;0.63;;;;;;;6.48;66.44;99126.16;10435360;28;20060;-75
2022/02/04 20:28:16;;;;;;;0.47;0.40;;;;;;;6.72;65.42;99103.66;10386489;28;20042;-75
2022/02/04 20:33:19;;;;;;;1.70;0.60;;;;;;;6.83;64.85;99104.19;10364550;28;20053;-75
2022/02/04 20:38:22;;;;;;;1.48;0.50;;;;;;;6.97;64.05;99104.59;10381602;28;20038;-75
2022/02/04 20:43:30;;;;;;;0.77;0.50;;;;;;;6.86;64.60;99098.84;10363205;28;20046;-75
2022/02/04 20:48:37;;;;;;;0.55;0.40;;;;;;;6.90;64.21;99076.09;10383158;28;20041;-74
2022/02/04 20:53:40;;;;;;;0.50;0.30;;;;;;;6.91;64.54;99078.69;10392398;28;20047;-75
2022/02/04 20:58:41;;;;;;;1.65;0.40;;;;;;;6.94;64.81;99073.34;10402162;28;20049;-75
2022/02/04 21:03:43;;;;;;;0.30;0.30;;;;;;;7.03;64.33;99085.25;10421331;28;20041;-75
2022/02/04 21:09:06;;;;;;;0.85;0.40;;;;;;;7.16;63.92;99083.09;10421058;28;20041;-75
2022/02/04 21:14:13;;;;;;;0.70;0.40;;;;;;;7.15;64.44;99063.09;10421999;28;20045;-75
2022/02/04 21:19:15;;;;;;;0.50;0.40;;;;;;;7.01;65.16;99061.78;10401751;28;20045;-75
2022/02/04 21:24:16;;;;;;;0.65;0.40;;;;;;;7.09;65.10;99061.53;10420831;28;20049;-75
2022/02/04 21:29:19;;;;;;;0.85;0.30;;;;;;;7.14;65.20;99062.25;10461548;23;20048;-71
2022/02/04 21:39:41;;;;;;;0.35;0.20;;;;;;;7.19;65.24;99067.31;10498454;28;20056;-72
2022/02/04 21:44:44;;;;;;;0.20;0.20;;;;;;;7.16;65.68;99064.78;10497837;28;20090;-70
2022/02/04 21:49:49;;;;;;;0.50;0.32;;;;;;;7.20;65.88;99063.78;10498148;28;20044;-70
2022/02/04 21:54:51;;;;;;;0.50;0.30;;;;;;;7.28;65.64;99083.53;10499451;28;20077;-70
2022/02/04 21:59:53;;;;;;;0.63;0.50;;;;;;;7.28;66.10;99083.53;10497587;28;20094;-71
2022/02/04 22:05:01;;;;;;;0.47;0.30;;;;;;;7.29;65.95;99085.25;10462790;28;20044;-70
2022/02/04 22:10:20;;;;;;;1.13;0.30;;;;;;;7.34;66.14;99092.94;10497160;28;20044;-71
2022/02/04 22:15:42;;;;;;;0.20;0.20;;;;;;;7.45;65.23;99085.59;10505780;28;20072;-71
2022/02/04 22:26:10;;;;;;;0.28;0.20;;;;;;;7.33;69.15;99170.50;10504970;28;20498;-71
2022/02/04 22:31:12;;;;;;;1.10;0.30;;;;;;;6.32;72.42;99167.50;10488469;28;20401;-70
2022/02/04 22:41:48;;;;;;;1.98;0.28;;;;;;;5.56;75.05;99204.25;10505026;28;20048;-70
2022/02/04 22:57:26;;;;;;;1.40;0.22;;;;;;;4.66;77.57;99315.66;10377651;28;20520;-69
2022/02/04 23:02:28;;;;;;;0.65;0.25;;;;;;;4.34;80.34;99345.75;10377544;28;20134;-69
2022/02/04 23:07:29;;;;;;;0.88;0.28;;;;;;;4.09;77.71;99365.25;10376473;28;20581;-69
2022/02/04 23:12:33;;;;;;;0.10;0.10;;;;;;;3.80;77.74;99385.59;10360386;28;20539;-69
2022/02/04 23:17:56;;;;;;;0.30;0.10;;;;;;;3.81;75.28;99412.47;10379310;28;20046;-71
2022/02/04 23:23:06;;;;;;;0.82;0.32;;;;;;;3.70;76.76;99422.16;10363563;28;20120;-69
2022/02/04 23:54:28;;;;;;;2.30;0.30;;;;;;;3.26;74.94;99522.28;10484330;28;20571;-71
